Terminal Aerodrome Forecast
Issued by NWS Mobile, AL

Home | Current Version | Previous Version | Text Only | Print | Product List | Glossary On
Versions: 1 2 3 4 5 6 7 8 9 10 11 12 13 14 15 16 17 18 19 20 21 22 23 24 25 26 27 28 29 30 31 32 33 34 35 36 37 38 39 40 41 42
484
FTUS44 KMOB 272341
TAFMOB
TAF
KMOB 272341Z 2800/2824 VRB05KT P6SM VCSH FEW050 SCT100
     FM280200 VRB03KT P6SM FEW050
     FM281700 27006KT P6SM SCT030 SCT250 PROB30 2819/2823 VRB25KT
      5SM TSRA BKN030CB=

USA.gov is the U.S. government's official web portal to all federal, state and local government web resources and services.